Time;durP1;ratioP1;P1;durP2;ratioP2;P2;SDS_P1;SDS_P2;PMS_P1;PMS_P2;Temp;Humidity;BMP_temperature;BMP_pressure;BME280_temperature;BME280_humidity;BME280_pressure;Samples;Min_cycle;Max_cycle;Signal;HPM_P1;HPM_P2
2021/09/10 00:00:56;;;;;;;3.83;3.63;;;22.50;64.80;;;;;;5033640;28;20029;-80
2021/09/10 00:03:22;;;;;;;4.05;3.85;;;22.50;64.80;;;;;;5033466;28;20033;-80
2021/09/10 00:05:48;;;;;;;3.72;3.53;;;22.40;64.80;;;;;;5033154;28;20028;-80
2021/09/10 00:08:14;;;;;;;3.17;3.08;;;22.50;64.90;;;;;;5031865;28;20064;-80
2021/09/10 00:10:40;;;;;;;3.95;3.75;;;22.40;64.90;;;;;;5032036;28;20025;-80
2021/09/10 00:13:06;;;;;;;3.75;3.55;;;22.40;64.90;;;;;;5015077;28;20065;-80
2021/09/10 00:15:32;;;;;;;3.92;3.72;;;22.40;64.90;;;;;;5031572;28;20037;-80
2021/09/10 00:17:58;;;;;;;3.53;3.40;;;22.40;65.00;;;;;;5032971;28;20401;-80
2021/09/10 00:20:24;;;;;;;4.10;3.90;;;22.40;65.10;;;;;;5033108;28;20029;-80
2021/09/10 00:22:50;;;;;;;4.35;4.15;;;22.40;65.10;;;;;;5033132;28;20036;-80
2021/09/10 00:25:16;;;;;;;3.72;3.53;;;22.40;65.20;;;;;;5032091;28;20036;-80
2021/09/10 00:27:42;;;;;;;3.80;3.60;;;22.30;65.10;;;;;;5032807;28;20045;-80
2021/09/10 00:30:09;;;;;;;7.28;3.85;;;22.40;65.20;;;;;;5032365;28;20029;-80
2021/09/10 00:32:35;;;;;;;3.85;3.65;;;22.40;65.30;;;;;;5031616;28;20060;-80
2021/09/10 00:35:03;;;;;;;3.88;3.67;;;22.40;65.40;;;;;;5032819;28;20030;-80
2021/09/10 00:37:30;;;;;;;4.03;3.83;;;22.40;65.40;;;;;;5032840;28;20022;-80
2021/09/10 00:39:56;;;;;;;3.45;3.35;;;22.30;65.40;;;;;;5033375;28;20034;-80
2021/09/10 00:42:22;;;;;;;4.18;3.97;;;22.30;65.40;;;;;;5032315;28;20033;-80
2021/09/10 00:44:48;;;;;;;4.30;4.10;;;22.30;65.40;;;;;;5032675;28;20036;-80
2021/09/10 00:47:14;;;;;;;4.28;4.00;;;22.30;65.50;;;;;;5031023;28;20034;-80
2021/09/10 00:49:40;;;;;;;3.72;3.53;;;22.30;65.50;;;;;;5032624;28;20040;-80
2021/09/10 00:52:06;;;;;;;4.10;3.90;;;22.30;65.50;;;;;;5031993;28;20040;-80
2021/09/10 00:54:33;;;;;;;3.92;3.72;;;22.30;65.60;;;;;;5031192;28;20403;-80
2021/09/10 00:56:59;;;;;;;3.70;3.50;;;22.30;65.60;;;;;;5031858;28;20517;-80
2021/09/10 00:59:25;;;;;;;4.10;3.90;;;22.30;65.70;;;;;;5031305;28;20060;-80
2021/09/10 01:01:51;;;;;;;4.22;4.03;;;22.30;65.70;;;;;;5030620;28;20097;-80
2021/09/10 01:04:18;;;;;;;3.47;3.35;;;22.30;65.80;;;;;;5015006;28;20037;-80
2021/09/10 01:06:44;;;;;;;4.07;3.88;;;22.30;65.80;;;;;;5031627;28;20026;-80
2021/09/10 01:09:10;;;;;;;4.00;3.80;;;22.30;65.90;;;;;;5030926;28;20048;-80
2021/09/10 01:11:36;;;;;;;3.85;3.65;;;22.30;65.90;;;;;;5030587;28;20052;-80
2021/09/10 01:14:02;;;;;;;5.47;4.97;;;22.20;65.90;;;;;;5031070;28;20055;-80
2021/09/10 01:16:28;;;;;;;3.85;3.65;;;22.20;66.00;;;;;;5031918;28;20034;-80
2021/09/10 01:18:54;;;;;;;3.55;3.40;;;22.20;66.00;;;;;;5013147;28;20045;-80
2021/09/10 01:21:21;;;;;;;3.53;3.33;;;22.20;66.10;;;;;;5031085;28;20034;-80
2021/09/10 01:23:47;;;;;;;3.75;3.55;;;22.20;66.10;;;;;;5032231;28;20477;-80
2021/09/10 01:26:13;;;;;;;3.72;3.53;;;22.20;66.10;;;;;;5030094;28;20030;-80
2021/09/10 01:28:39;;;;;;;3.67;3.47;;;22.20;66.10;;;;;;5014539;28;20044;-80
2021/09/10 01:31:05;;;;;;;3.42;3.33;;;22.20;66.20;;;;;;5030957;28;20033;-80
2021/09/10 01:33:31;;;;;;;4.13;3.83;;;22.20;66.30;;;;;;5030672;28;20033;-80
2021/09/10 01:35:57;;;;;;;3.85;3.65;;;22.20;66.40;;;;;;5030690;28;20026;-80
2021/09/10 01:38:25;;;;;;;3.78;3.58;;;22.20;66.40;;;;;;5031869;28;20398;-80
2021/09/10 01:40:51;;;;;;;3.67;3.47;;;22.10;66.40;;;;;;5031593;28;20025;-80
2021/09/10 01:43:17;;;;;;;3.90;3.70;;;22.10;66.40;;;;;;4994886;28;20042;-80
2021/09/10 01:45:43;;;;;;;3.75;3.55;;;22.10;66.50;;;;;;5031650;28;20048;-80
2021/09/10 01:48:10;;;;;;;3.13;3.03;;;22.10;66.50;;;;;;5031717;28;20025;-80
2021/09/10 01:50:36;;;;;;;3.70;3.50;;;22.10;66.60;;;;;;5031593;28;20030;-79
2021/09/10 01:53:02;;;;;;;4.18;3.97;;;22.10;66.60;;;;;;5031645;28;20470;-80
2021/09/10 01:55:30;;;;;;;3.72;3.53;;;22.10;66.60;;;;;;5031519;28;20033;-79
2021/09/10 01:57:56;;;;;;;3.88;3.67;;;22.10;66.70;;;;;;5029814;28;20441;-80
2021/09/10 02:00:22;;;;;;;7.43;4.50;;;22.10;66.70;;;;;;5025549;28;20049;-79
2021/09/10 02:02:48;;;;;;;3.97;3.78;;;22.00;66.70;;;;;;5021344;28;20486;-80
2021/09/10 02:05:14;;;;;;;3.63;3.45;;;22.00;66.80;;;;;;5022522;28;20038;-79
2021/09/10 02:07:40;;;;;;;3.70;3.50;;;22.00;66.80;;;;;;5029016;28;20033;-80
2021/09/10 02:10:08;;;;;;;3.97;3.78;;;22.00;66.90;;;;;;5029844;28;20045;-80
2021/09/10 02:12:34;;;;;;;3.80;3.60;;;22.00;66.90;;;;;;5025369;28;20209;-79
2021/09/10 02:15:00;;;;;;;3.80;3.60;;;22.00;66.90;;;;;;4994926;28;20045;-80
2021/09/10 02:17:26;;;;;;;4.57;4.28;;;22.00;67.00;;;;;;5026259;28;20029;-80
2021/09/10 02:19:52;;;;;;;3.80;3.60;;;21.90;67.00;;;;;;5026343;28;20391;-80
2021/09/10 02:22:18;;;;;;;4.15;3.95;;;21.90;67.00;;;;;;5029370;28;20033;-80
2021/09/10 02:24:44;;;;;;;4.05;3.85;;;21.90;67.00;;;;;;5027310;28;20042;-80
2021/09/10 02:27:11;;;;;;;4.35;4.10;;;21.90;67.00;;;;;;5025464;28;20021;-80
2021/09/10 02:29:37;;;;;;;3.90;3.70;;;21.90;67.10;;;;;;5026493;28;20363;-79
2021/09/10 02:32:03;;;;;;;3.88;3.67;;;21.90;67.10;;;;;;5026014;28;20041;-79
2021/09/10 02:34:29;;;;;;;3.92;3.72;;;21.90;67.20;;;;;;5028566;28;20033;-79
2021/09/10 02:36:55;;;;;;;4.32;4.13;;;21.90;67.20;;;;;;5023117;28;20033;-80
2021/09/10 02:39:21;;;;;;;3.95;3.75;;;21.90;67.30;;;;;;5032094;28;20041;-79
2021/09/10 02:41:47;;;;;;;4.78;4.55;;;21.80;67.30;;;;;;5033682;28;20032;-80
2021/09/10 02:44:13;;;;;;;4.20;4.00;;;21.80;67.30;;;;;;5033809;28;20026;-80
2021/09/10 02:46:40;;;;;;;3.97;3.78;;;21.80;67.40;;;;;;5034466;28;20044;-80
2021/09/10 02:49:06;;;;;;;4.30;4.10;;;21.80;67.40;;;;;;5033709;28;20042;-80
2021/09/10 02:51:32;;;;;;;4.28;4.07;;;21.80;67.40;;;;;;5034702;28;20032;-80
2021/09/10 02:53:58;;;;;;;4.45;4.18;;;21.80;67.40;;;;;;5034381;28;20030;-79
2021/09/10 02:56:24;;;;;;;3.97;3.78;;;21.80;67.50;;;;;;5033850;28;20033;-80
2021/09/10 02:58:50;;;;;;;17.40;4.03;;;21.80;67.50;;;;;;5034609;28;20096;-80
2021/09/10 03:01:16;;;;;;;5.03;4.72;;;21.80;67.50;;;;;;5034210;28;20036;-80
2021/09/10 03:03:42;;;;;;;4.07;3.88;;;21.80;67.50;;;;;;5033976;28;20029;-79
2021/09/10 03:06:09;;;;;;;3.75;3.55;;;21.90;67.60;;;;;;5034566;28;20021;-80
2021/09/10 03:08:35;;;;;;;4.00;3.80;;;21.90;67.60;;;;;;5033924;28;20053;-80
2021/09/10 03:11:01;;;;;;;4.40;4.20;;;21.80;68.30;;;;;;5032378;28;20036;-80
2021/09/10 03:13:27;;;;;;;4.30;4.10;;;21.80;67.60;;;;;;5034575;28;20029;-80
2021/09/10 03:15:53;;;;;;;4.20;4.00;;;21.80;67.60;;;;;;5032314;28;20498;-79
2021/09/10 03:18:19;;;;;;;4.22;4.00;;;21.80;67.60;;;;;;5034175;28;20025;-79
2021/09/10 03:20:45;;;;;;;4.20;4.00;;;21.80;67.70;;;;;;5034211;28;20417;-80
2021/09/10 03:23:11;;;;;;;4.22;4.03;;;21.90;67.70;;;;;;5015848;28;20037;-80
2021/09/10 03:25:37;;;;;;;4.80;4.38;;;21.90;67.80;;;;;;5034173;28;20478;-79
2021/09/10 03:28:04;;;;;;;4.30;4.00;;;21.90;67.80;;;;;;5034902;28;20029;-79
2021/09/10 03:30:30;;;;;;;7.20;4.22;;;21.90;67.80;;;;;;5033430;28;20049;-80
2021/09/10 03:32:56;;;;;;;3.72;3.53;;;21.80;67.80;;;;;;5032870;28;20473;-80
2021/09/10 03:35:22;;;;;;;3.50;3.35;;;21.80;67.80;;;;;;5034162;28;20044;-79
2021/09/10 03:37:48;;;;;;;3.15;3.05;;;21.90;68.00;;;;;;5033678;28;20540;-80
2021/09/10 03:40:14;;;;;;;3.40;3.30;;;21.90;67.90;;;;;;5016591;28;20033;-80
2021/09/10 03:42:40;;;;;;;4.05;3.80;;;21.90;68.00;;;;;;5034114;28;20038;-80
2021/09/10 03:45:07;;;;;;;4.05;3.75;;;21.80;68.70;;;;;;5033282;28;20029;-79
2021/09/10 03:47:33;;;;;;;3.55;3.38;;;21.80;68.00;;;;;;5032253;28;20041;-80
2021/09/10 03:49:59;;;;;;;3.50;3.30;;;21.80;68.10;;;;;;5031750;28;20025;-80
2021/09/10 03:52:25;;;;;;;3.90;3.70;;;21.80;68.10;;;;;;5033853;28;20037;-79
2021/09/10 03:54:51;;;;;;;8.77;3.72;;;21.80;68.20;;;;;;5034365;28;20033;-80
2021/09/10 03:57:17;;;;;;;3.47;3.28;;;21.80;68.20;;;;;;5032244;28;20021;-80
2021/09/10 03:59:43;;;;;;;3.33;3.17;;;21.80;68.20;;;;;;5033562;28;20042;-80
2021/09/10 04:02:09;;;;;;;3.33;3.22;;;21.80;68.30;;;;;;5032952;28;20037;-80
2021/09/10 04:04:36;;;;;;;4.15;3.85;;;21.80;68.30;;;;;;4998793;28;20045;-79
2021/09/10 04:07:02;;;;;;;3.83;3.53;;;21.80;68.30;;;;;;5034041;28;20025;-80
2021/09/10 04:09:28;;;;;;;17.42;3.63;;;21.90;68.40;;;;;;5031872;28;20042;-80
2021/09/10 04:11:54;;;;;;;3.42;3.30;;;21.90;68.40;;;;;;5033100;28;20032;-80
2021/09/10 04:14:20;;;;;;;3.28;3.17;;;21.90;68.40;;;;;;5033305;28;20029;-80
2021/09/10 04:16:46;;;;;;;3.42;3.30;;;21.90;68.50;;;;;;5031649;28;20036;-80
2021/09/10 04:19:12;;;;;;;3.10;3.00;;;21.80;68.40;;;;;;5033928;28;20033;-80
2021/09/10 04:21:38;;;;;;;3.45;3.25;;;21.80;68.50;;;;;;5033253;28;20037;-79
2021/09/10 04:24:05;;;;;;;3.88;3.63;;;21.80;68.50;;;;;;5031837;28;20026;-80
2021/09/10 04:26:31;;;;;;;3.95;3.75;;;21.80;68.50;;;;;;5032950;28;20029;-80
2021/09/10 04:28:57;;;;;;;3.72;3.53;;;21.80;68.50;;;;;;5031736;28;20040;-80
2021/09/10 04:31:23;;;;;;;11.13;3.58;;;21.80;68.60;;;;;;5031892;28;20417;-80
2021/09/10 04:33:49;;;;;;;3.85;3.65;;;21.80;68.60;;;;;;5033011;28;20025;-80
2021/09/10 04:36:15;;;;;;;3.70;3.50;;;21.80;68.60;;;;;;5032628;28;20030;-79
2021/09/10 04:38:41;;;;;;;3.90;3.70;;;21.80;68.70;;;;;;5031009;28;20048;-80
2021/09/10 04:41:07;;;;;;;3.95;3.75;;;21.80;68.70;;;;;;5032709;28;20040;-80
2021/09/10 04:43:33;;;;;;;3.90;3.70;;;21.80;68.70;;;;;;5032793;28;20026;-80
2021/09/10 04:46:00;;;;;;;3.80;3.60;;;21.80;68.80;;;;;;5032839;28;20038;-80
2021/09/10 04:48:26;;;;;;;4.10;3.90;;;21.80;68.80;;;;;;5030732;28;20045;-80
2021/09/10 04:50:52;;;;;;;3.53;3.33;;;21.80;68.80;;;;;;5032388;28;20060;-80
2021/09/10 04:53:18;;;;;;;3.67;3.47;;;21.80;68.90;;;;;;5032418;28;20045;-80
2021/09/10 04:55:44;;;;;;;3.90;3.70;;;21.70;69.00;;;;;;5032551;28;20500;-80
2021/09/10 04:58:10;;;;;;;3.53;3.38;;;21.80;69.00;;;;;;5032353;28;20033;-80
2021/09/10 05:00:36;;;;;;;3.70;3.50;;;21.80;69.10;;;;;;5031266;28;20520;-80
2021/09/10 05:03:02;;;;;;;4.20;3.97;;;21.80;69.00;;;;;;5031466;28;20033;-80
2021/09/10 05:05:28;;;;;;;4.20;4.00;;;21.80;69.00;;;;;;5014301;28;20049;-80
2021/09/10 05:07:54;;;;;;;3.75;3.55;;;21.70;69.10;;;;;;5031179;28;20033;-79
2021/09/10 05:10:21;;;;;;;3.78;3.58;;;21.80;69.10;;;;;;5014760;28;20041;-79
2021/09/10 05:12:47;;;;;;;3.65;3.47;;;21.70;69.10;;;;;;5031697;28;20040;-79
2021/09/10 05:15:13;;;;;;;5.10;3.53;;;21.80;69.20;;;;;;5030499;28;20030;-79
2021/09/10 05:17:39;;;;;;;3.78;3.58;;;21.80;69.20;;;;;;5030576;28;20478;-80
2021/09/10 05:20:07;;;;;;;3.85;3.65;;;21.80;69.20;;;;;;5032113;28;20048;-80
2021/09/10 05:22:34;;;;;;;4.07;3.88;;;21.70;69.20;;;;;;5031978;28;22398;-79
2021/09/10 05:25:01;;;;;;;3.80;3.60;;;21.70;69.20;;;;;;5031341;28;20367;-79
2021/09/10 05:27:27;;;;;;;3.92;3.72;;;21.80;69.30;;;;;;5031504;28;20049;-79
2021/09/10 05:29:53;;;;;;;4.57;4.25;;;21.80;69.30;;;;;;5031844;28;20371;-80
2021/09/10 05:32:19;;;;;;;3.47;3.35;;;21.80;69.40;;;;;;5030102;28;20045;-80
2021/09/10 05:34:46;;;;;;;4.00;3.80;;;21.80;69.40;;;;;;5030415;28;20504;-79
2021/09/10 05:37:12;;;;;;;4.00;3.80;;;21.70;69.30;;;;;;5031354;28;20037;-79
2021/09/10 05:39:38;;;;;;;4.20;3.90;;;21.70;69.40;;;;;;5030585;28;20049;-80
2021/09/10 05:42:04;;;;;;;4.15;3.95;;;21.80;69.50;;;;;;5031770;28;20025;-79
2021/09/10 05:44:30;;;;;;;4.35;3.95;;;21.80;69.50;;;;;;5031704;28;20040;-80
2021/09/10 05:46:56;;;;;;;4.18;3.97;;;21.80;69.50;;;;;;5031184;28;20029;-79
2021/09/10 05:49:22;;;;;;;4.30;4.10;;;21.70;69.50;;;;;;5032032;28;20041;-79
2021/09/10 05:51:49;;;;;;;4.38;4.18;;;21.70;69.60;;;;;;5032141;28;20032;-79
2021/09/10 05:54:15;;;;;;;5.13;3.50;;;21.70;69.60;;;;;;5031509;28;20021;-79
2021/09/10 05:56:41;;;;;;;4.22;3.85;;;21.70;69.60;;;;;;5031626;28;20056;-79
2021/09/10 05:59:07;;;;;;;3.60;3.40;;;21.80;69.80;;;;;;5031649;28;20412;-79
2021/09/10 06:01:33;;;;;;;3.67;3.47;;;21.80;69.70;;;;;;5030877;28;20440;-79
2021/09/10 06:03:59;;;;;;;3.67;3.38;;;21.70;69.70;;;;;;5030965;28;20041;-79
2021/09/10 06:06:26;;;;;;;3.67;3.47;;;21.80;69.80;;;;;;5031383;28;20033;-79
2021/09/10 06:08:52;;;;;;;3.50;3.33;;;21.70;69.80;;;;;;5030345;28;20046;-79
2021/09/10 06:11:18;;;;;;;3.75;3.55;;;21.70;69.80;;;;;;5030097;28;20048;-79
2021/09/10 06:13:44;;;;;;;4.60;4.30;;;21.80;70.00;;;;;;5034300;28;20414;-79
2021/09/10 06:16:10;;;;;;;3.80;3.60;;;21.70;69.90;;;;;;5035433;28;20371;-79
2021/09/10 06:18:36;;;;;;;3.85;3.65;;;21.80;70.00;;;;;;5034148;28;20046;-79
2021/09/10 06:21:03;;;;;;;4.07;3.88;;;21.70;69.90;;;;;;5035173;28;20037;-79
2021/09/10 06:23:30;;;;;;;3.95;3.75;;;21.80;70.10;;;;;;5033602;28;20030;-79
2021/09/10 06:25:56;;;;;;;3.70;3.50;;;21.70;70.00;;;;;;5034080;28;20079;-79
2021/09/10 06:28:22;;;;;;;3.88;3.67;;;21.80;70.10;;;;;;5034224;28;20486;-79
2021/09/10 06:30:48;;;;;;;7.10;3.78;;;21.80;70.00;;;;;;5034540;28;20042;-79
2021/09/10 06:33:14;;;;;;;3.67;3.47;;;21.80;70.00;;;;;;5033882;28;20039;-79
2021/09/10 06:35:40;;;;;;;3.85;3.65;;;21.80;70.00;;;;;;5035122;28;20030;-79
2021/09/10 06:38:06;;;;;;;3.95;3.75;;;21.90;69.90;;;;;;5035217;28;20029;-79
2021/09/10 06:40:33;;;;;;;6.10;3.78;;;21.90;69.90;;;;;;5034818;28;20037;-79
2021/09/10 06:43:00;;;;;;;4.07;3.88;;;22.00;69.90;;;;;;5035632;28;20026;-79
2021/09/10 06:45:26;;;;;;;3.80;3.60;;;22.00;69.80;;;;;;5034115;28;20041;-79
2021/09/10 06:47:52;;;;;;;3.92;3.72;;;22.00;69.80;;;;;;5033709;28;20468;-80
2021/09/10 06:50:19;;;;;;;3.95;3.75;;;22.00;69.70;;;;;;5034989;28;20026;-79
2021/09/10 06:52:45;;;;;;;3.83;3.63;;;22.00;69.70;;;;;;5033159;28;20041;-79
2021/09/10 06:55:11;;;;;;;3.95;3.75;;;22.10;69.70;;;;;;5034342;28;20036;-79
2021/09/10 06:57:37;;;;;;;14.30;5.10;;;22.10;69.70;;;;;;5033290;28;20042;-79
2021/09/10 07:00:05;;;;;;;4.30;4.10;;;22.30;69.70;;;;;;5033602;28;20038;-78
2021/09/10 07:02:31;;;;;;;4.13;3.92;;;22.50;69.20;;;;;;5033418;28;20033;-80
2021/09/10 07:04:57;;;;;;;5.20;4.90;;;22.80;68.70;;;;;;5034167;28;20043;-80
2021/09/10 07:07:23;;;;;;;5.03;4.82;;;23.10;67.90;;;;;;5034719;28;20022;-80
2021/09/10 07:09:50;;;;;;;4.97;4.78;;;23.30;67.50;;;;;;5034873;28;20045;-80
2021/09/10 07:12:18;;;;;;;5.13;4.93;;;23.60;67.20;;;;;;5033637;28;20068;-80
2021/09/10 07:14:44;;;;;;;6.13;5.82;;;23.70;66.70;;;;;;5033006;28;20414;-80
2021/09/10 07:17:10;;;;;;;5.53;5.30;;;23.80;66.60;;;;;;5032588;28;20033;-80
2021/09/10 07:19:36;;;;;;;9.52;6.10;;;23.90;66.50;;;;;;5033223;28;20045;-80
2021/09/10 07:22:02;;;;;;;4.85;4.65;;;23.90;66.50;;;;;;5034983;28;20048;-80
2021/09/10 07:24:29;;;;;;;6.53;6.22;;;23.90;66.60;;;;;;5032220;28;20029;-80
2021/09/10 07:26:55;;;;;;;5.57;5.28;;;24.00;66.70;;;;;;5032490;28;20470;-80
2021/09/10 07:29:23;;;;;;;6.28;5.78;;;24.10;66.70;;;;;;5033988;28;20029;-80
2021/09/10 07:31:50;;;;;;;5.80;5.50;;;24.30;66.40;;;;;;5032072;28;20042;-80
2021/09/10 07:34:16;;;;;;;6.20;5.90;;;24.50;65.90;;;;;;5033211;28;20046;-80
2021/09/10 07:36:48;;;;;;;5.75;5.45;;;24.50;65.60;;;;;;5033919;28;20478;-80
2021/09/10 07:39:16;;;;;;;5.45;5.15;;;24.50;65.60;;;;;;5033392;28;20509;-80
2021/09/10 07:41:42;;;;;;;6.00;5.70;;;24.40;65.80;;;;;;5033016;28;20501;-79
2021/09/10 07:44:08;;;;;;;7.05;5.57;;;24.40;66.00;;;;;;5033730;28;20052;-80
2021/09/10 07:46:35;;;;;;;5.53;5.30;;;24.40;65.90;;;;;;5032404;28;20041;-80
2021/09/10 07:49:01;;;;;;;6.30;6.00;;;24.40;65.90;;;;;;5033287;28;20040;-80
2021/09/10 07:51:27;;;;;;;5.82;5.53;;;24.60;65.90;;;;;;5033602;28;20046;-80
2021/09/10 07:53:53;;;;;;;7.50;5.82;;;24.70;65.50;;;;;;5032203;28;20037;-80
2021/09/10 07:56:19;;;;;;;5.68;5.38;;;25.00;64.90;;;;;;5032021;28;20034;-80
2021/09/10 07:58:45;;;;;;;5.68;5.38;;;25.10;64.50;;;;;;5032140;28;20036;-80
2021/09/10 08:01:11;;;;;;;5.55;5.25;;;25.10;64.40;;;;;;5032087;28;20046;-80
2021/09/10 08:03:38;;;;;;;5.05;4.85;;;25.10;64.60;;;;;;5033599;28;20032;-80
2021/09/10 08:06:04;;;;;;;5.07;4.88;;;24.90;64.80;;;;;;5032325;28;20025;-80
2021/09/10 08:08:30;;;;;;;4.75;4.55;;;24.80;65.10;;;;;;5033465;28;20056;-80
2021/09/10 08:10:56;;;;;;;5.22;4.93;;;24.70;65.20;;;;;;5033308;28;20030;-80
2021/09/10 08:13:22;;;;;;;5.25;5.05;;;24.70;65.40;;;;;;5032085;28;20033;-80
2021/09/10 08:15:48;;;;;;;5.40;5.15;;;24.70;65.40;;;;;;5031747;28;20041;-80
2021/09/10 08:18:15;;;;;;;4.90;4.70;;;24.70;65.30;;;;;;5033109;28;20021;-80
2021/09/10 08:20:41;;;;;;;4.90;4.70;;;24.70;65.10;;;;;;5032908;28;20030;-80
2021/09/10 08:23:07;;;;;;;5.47;5.07;;;24.80;65.10;;;;;;5031811;28;20041;-80
2021/09/10 08:25:33;;;;;;;5.50;5.20;;;24.90;65.70;;;;;;5032984;28;20033;-80
2021/09/10 08:27:59;;;;;;;5.40;5.15;;;24.90;64.60;;;;;;5033665;28;20040;-80
2021/09/10 08:30:25;;;;;;;5.57;5.30;;;25.00;64.50;;;;;;5032460;28;20044;-80
2021/09/10 08:32:53;;;;;;;6.00;5.70;;;25.00;64.30;;;;;;5031796;28;20394;-80
2021/09/10 08:35:21;;;;;;;6.15;5.75;;;25.00;64.30;;;;;;5032226;28;20394;-80
2021/09/10 08:37:47;;;;;;;17.75;6.93;;;25.00;64.20;;;;;;5032862;28;20389;-80
2021/09/10 08:40:13;;;;;;;6.30;6.00;;;25.00;64.20;;;;;;5015671;28;20037;-80
2021/09/10 08:42:39;;;;;;;5.93;5.63;;;25.00;64.20;;;;;;5033019;28;20029;-80
2021/09/10 08:45:06;;;;;;;5.97;5.68;;;25.00;64.20;;;;;;5031019;28;20029;-80
2021/09/10 08:47:32;;;;;;;6.03;5.72;;;25.00;64.10;;;;;;5031239;28;20037;-81
2021/09/10 08:49:58;;;;;;;6.00;5.70;;;24.90;64.00;;;;;;5030662;28;20386;-81
2021/09/10 08:52:24;;;;;;;5.40;5.18;;;24.90;64.10;;;;;;5032704;28;20040;-80
2021/09/10 08:54:50;;;;;;;4.35;4.15;;;24.80;64.30;;;;;;5030936;28;20037;-80
2021/09/10 08:57:16;;;;;;;4.95;4.75;;;24.70;64.40;;;;;;5031301;28;20025;-80
2021/09/10 08:59:42;;;;;;;5.65;5.25;;;24.80;64.40;;;;;;5032136;28;20037;-80
2021/09/10 09:02:09;;;;;;;6.18;5.88;;;24.90;64.00;;;;;;5032015;28;20048;-80
2021/09/10 09:04:37;;;;;;;7.63;7.32;;;25.20;63.50;;;;;;5032445;28;20038;-80
2021/09/10 09:07:04;;;;;;;8.57;8.07;;;25.60;63.00;;;;;;5015291;28;20478;-80
2021/09/10 09:09:47;;;;;;;8.73;8.32;;;25.90;62.10;;;;;;5031824;28;20045;-81
2021/09/10 09:12:29;;;;;;;9.13;8.73;;;26.20;61.60;;;;;;5030621;28;20402;-81
2021/09/10 09:15:06;;;;;;;9.40;8.90;;;26.30;61.20;;;;;;5031805;28;20045;-81
2021/09/10 09:17:40;;;;;;;8.70;8.30;;;26.30;61.10;;;;;;5031221;28;20037;-81
2021/09/10 09:20:09;;;;;;;10.13;9.63;;;26.50;61.10;;;;;;5014098;28;20498;-81
2021/09/10 09:23:09;;;;;;;9.85;9.35;;;26.60;61.70;;;;;;5032240;28;20045;-81
2021/09/10 09:25:42;;;;;;;9.48;8.98;;;26.60;60.60;;;;;;5041312;28;20078;-81
2021/09/10 09:28:19;;;;;;;10.23;9.73;;;26.70;60.50;;;;;;5032746;28;20378;-81
2021/09/10 09:30:45;;;;;;;10.35;9.85;;;26.90;60.20;;;;;;5030342;28;20030;-81
2021/09/10 09:33:14;;;;;;;10.95;10.45;;;27.10;60.00;;;;;;5030236;28;20478;-81
2021/09/10 09:35:41;;;;;;;8.30;7.90;;;27.30;59.60;;;;;;5030185;28;20057;-81
2021/09/10 09:38:21;;;;;;;8.93;8.50;;;27.40;59.50;;;;;;5031459;28;20050;-81
2021/09/10 09:41:23;;;;;;;8.77;8.38;;;27.40;59.40;;;;;;5000657;28;20037;-81
2021/09/10 09:44:14;;;;;;;9.25;8.85;;;27.40;59.40;;;;;;5012531;28;20486;-81
2021/09/10 09:46:46;;;;;;;7.95;7.55;;;27.40;59.30;;;;;;5030364;28;20125;-81
2021/09/10 09:49:14;;;;;;;8.52;8.13;;;27.40;59.40;;;;;;5028132;28;20021;-81
2021/09/10 09:52:02;;;;;;;9.02;8.60;;;27.30;59.50;;;;;;5031806;28;20034;-81
2021/09/10 09:54:28;;;;;;;9.07;8.65;;;27.20;59.40;;;;;;5014427;28;20033;-81
2021/09/10 09:56:55;;;;;;;12.20;11.63;;;27.00;59.60;;;;;;5031527;28;20036;-80
2021/09/10 09:59:21;;;;;;;10.38;9.90;;;26.90;59.80;;;;;;5031032;28;20037;-81
2021/09/10 10:01:47;;;;;;;9.52;9.13;;;26.80;59.90;;;;;;5030694;28;20049;-81
2021/09/10 10:04:14;;;;;;;9.98;9.50;;;26.70;60.00;;;;;;5014718;28;20033;-81
2021/09/10 10:06:41;;;;;;;14.55;13.85;;;26.60;60.00;;;;;;5030597;28;20057;-82
2021/09/10 10:09:11;;;;;;;8.18;7.78;;;26.40;60.30;;;;;;5013665;28;20041;-82
2021/09/10 10:11:39;;;;;;;8.32;7.93;;;26.20;60.70;;;;;;5029542;28;20449;-82
2021/09/10 10:14:06;;;;;;;6.18;5.88;;;26.00;61.20;;;;;;5030447;28;20037;-81
2021/09/10 10:16:36;;;;;;;6.65;5.35;;;25.70;61.70;;;;;;5028973;28;20058;-81
2021/09/10 10:19:04;;;;;;;5.07;4.88;;;25.50;62.20;;;;;;5014474;28;20038;-81
2021/09/10 10:22:06;;;;;;;6.10;5.15;;;25.30;62.50;;;;;;5029944;28;20060;-82
2021/09/10 10:24:42;;;;;;;6.20;5.75;;;25.10;62.90;;;;;;4960506;28;20419;-81
2021/09/10 10:27:37;;;;;;;5.63;5.35;;;25.00;63.20;;;;;;4962209;28;20399;-82
2021/09/10 10:30:16;;;;;;;5.30;5.10;;;24.90;63.30;;;;;;4965745;28;20031;-81
2021/09/10 10:32:42;;;;;;;4.97;4.78;;;24.90;63.50;;;;;;4966237;28;20567;-81
2021/09/10 10:35:34;;;;;;;5.88;5.57;;;24.80;63.50;;;;;;4950771;28;20151;-82
2021/09/10 10:38:10;;;;;;;4.68;4.47;;;24.80;63.60;;;;;;4938610;28;20031;-82
2021/09/10 10:40:49;;;;;;;4.65;4.45;;;24.80;64.30;;;;;;4953997;28;20042;-81
2021/09/10 10:43:18;;;;;;;5.25;5.05;;;24.80;63.50;;;;;;4967206;28;20061;-82
2021/09/10 10:45:44;;;;;;;4.60;4.40;;;24.80;63.50;;;;;;4965855;28;20039;-82
2021/09/10 10:48:36;;;;;;;4.90;4.60;;;24.80;63.50;;;;;;4965390;28;20061;-82
2021/09/10 10:51:19;;;;;;;4.32;4.13;;;24.80;63.60;;;;;;4962097;28;20050;-81
2021/09/10 10:53:46;;;;;;;5.30;5.00;;;24.80;63.70;;;;;;4966170;28;20088;-81
2021/09/10 10:56:24;;;;;;;4.63;4.43;;;24.80;63.80;;;;;;4950209;29;20417;-82
2021/09/10 10:59:25;;;;;;;5.13;4.93;;;24.70;63.90;;;;;;5000234;28;20045;-82
2021/09/10 11:02:31;;;;;;;5.00;4.80;;;24.70;64.00;;;;;;4939601;28;20411;-81
2021/09/10 11:05:07;;;;;;;4.43;4.22;;;24.70;64.10;;;;;;4923782;29;20043;-81
2021/09/10 11:07:33;;;;;;;4.95;4.75;;;24.60;64.10;;;;;;4937263;29;20039;-81
2021/09/10 11:10:09;;;;;;;4.22;4.03;;;24.60;64.20;;;;;;4950413;29;20055;-81
2021/09/10 11:12:37;;;;;;;5.38;5.07;;;24.60;64.30;;;;;;4938181;29;20398;-81
2021/09/10 11:15:28;;;;;;;5.05;4.75;;;24.60;64.30;;;;;;4949422;28;20031;-81
2021/09/10 11:18:04;;;;;;;;;;;24.70;64.30;;;;;;4950328;29;20027;-82
2021/09/10 11:20:34;;;;;;;4.45;4.25;;;24.80;64.00;;;;;;4935968;29;19925;-81
2021/09/10 11:23:05;;;;;;;5.68;5.40;;;25.00;63.80;;;;;;4922970;29;20039;-82
2021/09/10 11:25:31;;;;;;;4.55;4.35;;;25.10;63.60;;;;;;4952682;29;20127;-81
2021/09/10 11:27:57;;;;;;;5.35;5.10;;;25.20;63.40;;;;;;4950370;29;20491;-81
2021/09/10 11:30:23;;;;;;;5.72;5.43;;;25.20;63.40;;;;;;4921684;28;20039;-82
2021/09/10 11:33:00;;;;;;;5.40;5.10;;;25.30;63.50;;;;;;4937858;29;20039;-81
2021/09/10 11:35:27;;;;;;;5.68;5.38;;;25.30;63.50;;;;;;4936653;29;20032;-81
2021/09/10 11:38:00;;;;;;;5.80;5.50;;;25.40;63.40;;;;;;4986230;28;20052;-82
2021/09/10 11:40:34;;;;;;;6.00;5.70;;;25.40;63.40;;;;;;5014519;28;20483;-81
2021/09/10 11:43:14;;;;;;;5.82;5.53;;;25.50;63.40;;;;;;5015920;28;20053;-81
2021/09/10 11:45:50;;;;;;;5.85;5.55;;;25.60;63.40;;;;;;5032394;28;20030;-81
2021/09/10 11:48:23;;;;;;;6.80;6.50;;;25.80;63.30;;;;;;5032705;28;20021;-81
2021/09/10 11:51:00;;;;;;;9.77;9.35;;;26.00;62.90;;;;;;5032185;28;20037;-81
2021/09/10 11:53:36;;;;;;;10.57;10.07;;;26.20;62.50;;;;;;5032706;28;20378;-81
2021/09/10 11:56:06;;;;;;;8.38;7.97;;;26.40;62.30;;;;;;5033755;28;20479;-82
2021/09/10 11:58:36;;;;;;;8.65;8.25;;;26.50;62.00;;;;;;5033206;28;20045;-81
2021/09/10 12:01:25;;;;;;;10.50;10.00;;;26.60;62.00;;;;;;5015867;28;20030;-82
2021/09/10 12:03:56;;;;;;;8.95;8.55;;;26.60;62.00;;;;;;5033270;28;20280;-81
2021/09/10 12:06:23;;;;;;;11.05;10.55;;;26.70;62.00;;;;;;5032515;28;20025;-81
2021/09/10 12:09:28;;;;;;;10.50;10.00;;;26.80;61.80;;;;;;5033292;28;20045;-81
2021/09/10 12:12:06;;;;;;;11.57;11.07;;;27.00;61.20;;;;;;4967787;28;20031;-81
2021/09/10 12:14:58;;;;;;;11.32;10.82;;;27.00;61.20;;;;;;4967744;28;20054;-81
2021/09/10 12:17:24;;;;;;;10.35;9.85;;;27.00;61.30;;;;;;4967758;28;20046;-81
2021/09/10 12:19:58;;;;;;;10.57;10.07;;;27.00;61.20;;;;;;4971908;28;20380;-81
2021/09/10 12:22:37;;;;;;;10.02;9.52;;;26.90;61.10;;;;;;4956902;28;20063;-81
2021/09/10 12:25:22;;;;;;;10.48;9.98;;;26.80;61.30;;;;;;4956303;28;20499;-81
2021/09/10 12:28:08;;;;;;;8.18;7.78;;;26.80;61.20;;;;;;4972075;28;20043;-81
2021/09/10 12:30:34;;;;;;;8.68;8.27;;;26.80;61.00;;;;;;4948110;28;20043;-81
2021/09/10 12:33:00;;;;;;;10.88;10.38;;;26.80;60.80;;;;;;4949907;28;20503;-81
2021/09/10 12:35:27;;;;;;;10.20;9.70;;;26.80;60.70;;;;;;4967781;28;20047;-81
2021/09/10 12:38:00;;;;;;;7.82;7.47;;;26.90;60.50;;;;;;4971258;28;20419;-81
2021/09/10 12:40:27;;;;;;;8.13;7.72;;;27.00;60.00;;;;;;4952399;28;20538;-81
2021/09/10 12:42:54;;;;;;;9.70;9.27;;;27.10;59.60;;;;;;4991467;28;20046;-81
2021/09/10 12:45:20;;;;;;;8.05;7.65;;;27.10;59.40;;;;;;5028566;28;20033;-81
2021/09/10 12:47:46;;;;;;;7.43;7.13;;;27.10;59.40;;;;;;5032283;28;20037;-81
2021/09/10 12:50:12;;;;;;;9.25;8.85;;;27.00;59.30;;;;;;5031465;28;20032;-81
2021/09/10 12:52:38;;;;;;;9.55;9.10;;;26.80;59.50;;;;;;5032231;28;20037;-81